Time;durP1;ratioP1;P1;durP2;ratioP2;P2;SDS_P1;SDS_P2;PMS_P1;PMS_P2;Temp;Humidity;BMP_temperature;BMP_pressure;BME280_temperature;BME280_humidity;BME280_pressure;Samples;Min_cycle;Max_cycle;Signal;HPM_P1;HPM_P2
2023/10/22 00:00:39;;;;;;;9.75;3.05;;;;;;;18.13;49.38;94708.19;5071647;28;20023;-70
2023/10/22 00:03:04;;;;;;;6.38;2.58;;;;;;;18.13;49.85;94644.31;5070245;28;20487;-70
2023/10/22 00:05:30;;;;;;;9.90;3.20;;;;;;;18.27;49.29;94680.31;5071502;28;20035;-70
2023/10/22 00:07:55;;;;;;;10.60;3.53;;;;;;;18.56;52.33;94689.31;5069274;28;20089;-71
2023/10/22 00:10:21;;;;;;;6.43;2.80;;;;;;;18.32;51.71;94675.34;5052601;28;20483;-70
2023/10/22 00:12:46;;;;;;;10.00;2.60;;;;;;;18.25;51.59;94656.84;5071047;28;20020;-70
2023/10/22 00:15:11;;;;;;;6.65;2.80;;;;;;;18.32;52.12;94664.84;5069438;28;20086;-70
2023/10/22 00:17:37;;;;;;;10.38;3.13;;;;;;;18.04;50.58;94659.34;5070666;28;20025;-70
2023/10/22 00:20:03;;;;;;;6.97;2.30;;;;;;;18.37;49.43;94666.94;5071031;28;20090;-70
2023/10/22 00:22:28;;;;;;;8.30;2.50;;;;;;;18.41;50.63;94653.25;5070822;28;20470;-70
2023/10/22 00:24:53;;;;;;;9.55;3.05;;;;;;;18.26;50.04;94640.09;5049906;28;20473;-70
2023/10/22 00:27:19;;;;;;;14.88;3.10;;;;;;;18.55;50.96;94649.00;5063814;28;20032;-70
2023/10/22 00:29:45;;;;;;;9.52;3.08;;;;;;;18.38;50.31;94608.09;5069928;28;20044;-70
2023/10/22 00:32:10;;;;;;;10.07;2.90;;;;;;;18.48;50.45;94606.03;5070668;28;20028;-70
2023/10/22 00:34:36;;;;;;;10.02;2.72;;;;;;;18.64;51.60;94634.78;5053140;28;20109;-70
2023/10/22 00:37:01;;;;;;;11.90;2.92;;;;;;;18.59;49.78;94629.25;5069787;28;20421;-70
2023/10/22 00:39:27;;;;;;;9.80;2.38;;;;;;;18.81;49.04;94637.28;5071158;28;20493;-70
2023/10/22 00:41:52;;;;;;;10.63;2.67;;;;;;;18.74;49.80;94624.00;5069375;28;20509;-70
2023/10/22 00:44:17;;;;;;;6.90;2.80;;;;;;;19.07;53.83;94648.13;5049454;28;20506;-71
2023/10/22 00:46:46;;;;;;;6.20;2.80;;;;;;;18.91;52.35;94635.16;5057498;28;20040;-70
2023/10/22 00:49:11;;;;;;;4.30;2.40;;;;;;;18.82;52.92;94639.72;5070801;28;20029;-70
2023/10/22 00:51:37;;;;;;;7.65;2.63;;;;;;;18.89;51.99;94639.81;5069285;28;20082;-71
2023/10/22 00:54:02;;;;;;;8.38;2.85;;;;;;;18.86;52.81;94637.53;5049435;28;20032;-70
2023/10/22 00:56:28;;;;;;;7.47;2.50;;;;;;;18.69;52.11;94632.44;5042735;28;20021;-70
2023/10/22 00:58:53;;;;;;;6.15;2.50;;;;;;;18.69;53.17;94636.84;5069374;28;20036;-71
2023/10/22 01:01:19;;;;;;;9.38;2.78;;;;;;;18.51;52.06;94648.56;5070337;28;20490;-70
2023/10/22 01:03:44;;;;;;;8.13;2.47;;;;;;;18.47;53.92;94656.97;5068898;28;20048;-70
2023/10/22 01:06:09;;;;;;;8.77;3.63;;;;;;;18.37;54.14;94657.25;5070439;28;20577;-70
2023/10/22 01:08:36;;;;;;;9.63;2.60;;;;;;;18.26;54.46;94669.00;5068918;28;20170;-70
2023/10/22 01:11:08;;;;;;;7.20;3.03;;;;;;;18.15;53.25;94669.44;5069095;28;20090;-70
2023/10/22 01:13:34;;;;;;;6.85;2.75;;;;;;;18.32;52.89;94670.09;5069471;28;20052;-71
2023/10/22 01:15:59;;;;;;;6.10;2.28;;;;;;;18.37;54.12;94661.69;5069189;28;20024;-72
2023/10/22 01:18:25;;;;;;;7.10;2.42;;;;;;;18.35;53.58;94653.16;5068927;28;20049;-70
2023/10/22 01:20:50;;;;;;;9.35;2.95;;;;;;;18.35;54.28;94655.78;5054281;28;20040;-70
2023/10/22 01:23:16;;;;;;;7.85;2.78;;;;;;;18.29;53.63;94658.13;5073032;28;20033;-70
2023/10/22 01:25:41;;;;;;;7.03;2.35;;;;;;;18.24;52.82;94657.84;5073253;28;20029;-70
2023/10/22 01:28:07;;;;;;;6.20;2.20;;;;;;;18.13;53.24;94657.44;5072535;28;20453;-70
2023/10/22 01:30:32;;;;;;;8.20;2.53;;;;;;;18.07;53.92;94656.34;5073208;28;20028;-70
2023/10/22 01:32:57;;;;;;;7.10;2.38;;;;;;;17.94;52.93;94650.84;5073607;28;20367;-71
2023/10/22 01:35:23;;;;;;;14.32;2.58;;;;;;;17.79;53.01;94642.94;5056067;28;20029;-70
2023/10/22 01:37:48;;;;;;;6.80;2.63;;;;;;;17.38;53.17;94609.88;5072303;28;20426;-70
2023/10/22 01:40:14;;;;;;;6.50;2.60;;;;;;;17.45;52.20;94648.53;5055716;28;20552;-70
2023/10/22 01:42:39;;;;;;;8.77;2.35;;;;;;;17.54;52.70;94655.38;5056091;28;20032;-70
2023/10/22 01:45:06;;;;;;;8.93;2.85;;;;;;;17.10;52.48;94616.56;5073987;28;20028;-70
2023/10/22 01:47:31;;;;;;;8.00;2.63;;;;;;;17.69;52.91;94655.44;5056290;28;20335;-70
2023/10/22 01:49:57;;;;;;;9.70;2.88;;;;;;;17.55;51.96;94651.75;5072119;28;20063;-71
2023/10/22 01:52:23;;;;;;;8.93;2.63;;;;;;;17.71;52.42;94637.69;5072377;28;20449;-70
2023/10/22 01:54:49;;;;;;;6.95;2.38;;;;;;;17.42;53.20;94637.41;5072156;28;20040;-70
2023/10/22 01:57:16;;;;;;;8.13;2.00;;;;;;;17.48;53.52;94638.50;5072678;28;20036;-70
2023/10/22 01:59:42;;;;;;;6.03;2.00;;;;;;;17.30;53.72;94633.53;5072692;28;20028;-70
2023/10/22 02:02:07;;;;;;;6.25;2.35;;;;;;;17.28;54.49;94630.25;5071688;28;20043;-70
2023/10/22 02:04:33;;;;;;;7.55;2.30;;;;;;;17.47;54.99;94649.16;5055673;28;20563;-71
2023/10/22 02:06:58;;;;;;;7.28;2.38;;;;;;;17.57;51.09;94653.22;5073509;28;20609;-70
2023/10/22 02:09:24;;;;;;;8.30;2.60;;;;;;;17.41;51.29;94656.78;5072105;28;20042;-70
2023/10/22 02:11:50;;;;;;;8.65;2.60;;;;;;;17.58;51.72;94656.69;5073436;28;20024;-70
2023/10/22 02:14:15;;;;;;;11.13;3.20;;;;;;;17.64;50.49;94653.34;5073670;28;20072;-70
2023/10/22 02:16:41;;;;;;;8.70;2.58;;;;;;;17.58;50.58;94648.81;5072257;28;20506;-70
2023/10/22 02:19:06;;;;;;;6.82;2.78;;;;;;;17.55;50.83;94651.75;5073411;28;20494;-70
2023/10/22 02:21:32;;;;;;;8.05;3.10;;;;;;;17.47;51.64;94654.41;5070857;28;20035;-70
2023/10/22 02:23:57;;;;;;;7.05;2.92;;;;;;;17.57;51.44;94649.78;5072786;28;20044;-70
2023/10/22 02:26:23;;;;;;;9.38;2.80;;;;;;;17.41;51.08;94648.91;5072170;28;20021;-70
2023/10/22 02:28:48;;;;;;;10.20;3.00;;;;;;;17.58;50.29;94660.13;5071371;28;20032;-70
2023/10/22 02:31:14;;;;;;;9.30;3.00;;;;;;;17.59;51.65;94653.88;5072787;28;20104;-70
2023/10/22 02:33:39;;;;;;;11.52;3.30;;;;;;;17.53;51.75;94643.25;5072169;28;20116;-70
2023/10/22 02:36:06;;;;;;;9.98;3.25;;;;;;;17.48;51.70;94635.88;5072954;28;20406;-70
2023/10/22 02:38:32;;;;;;;6.25;2.60;;;;;;;17.58;51.58;94639.09;5038470;28;20563;-70
2023/10/22 02:40:58;;;;;;;7.30;2.67;;;;;;;17.46;52.71;94629.16;5071762;28;20036;-70
2023/10/22 02:43:23;;;;;;;6.80;3.00;;;;;;;17.31;53.53;94619.41;5071754;28;20032;-70
2023/10/22 02:45:52;;;;;;;6.97;2.40;;;;;;;17.34;51.54;94592.81;5072811;28;20033;-70
2023/10/22 02:48:17;;;;;;;6.63;2.05;;;;;;;17.34;52.34;94616.44;5054570;28;20040;-70
2023/10/22 02:50:43;;;;;;;7.00;2.25;;;;;;;17.17;50.73;94620.16;5071166;28;20029;-70
2023/10/22 02:53:09;;;;;;;5.10;1.90;;;;;;;17.17;51.59;94622.78;5071674;28;20486;-70
2023/10/22 02:55:34;;;;;;;7.43;2.28;;;;;;;17.19;50.66;94620.81;5070884;28;20033;-70
2023/10/22 02:57:59;;;;;;;11.00;2.60;;;;;;;17.31;49.28;94624.66;5071560;28;20090;-70
2023/10/22 03:00:25;;;;;;;8.00;2.63;;;;;;;17.42;49.12;94632.16;5072682;28;20490;-70
2023/10/22 03:02:50;;;;;;;8.48;2.58;;;;;;;17.28;49.48;94622.38;5070954;28;20038;-70
2023/10/22 03:05:16;;;;;;;6.75;2.50;;;;;;;17.42;48.41;94632.16;5037819;28;20405;-70
2023/10/22 03:07:41;;;;;;;8.60;3.42;;;;;;;17.36;48.88;94626.78;5070652;28;20123;-70
2023/10/22 03:10:09;;;;;;;7.88;2.78;;;;;;;17.31;48.66;94615.97;5072431;28;20024;-70
2023/10/22 03:12:35;;;;;;;9.02;2.65;;;;;;;17.25;48.89;94622.72;5054228;28;20111;-70
2023/10/22 03:15:00;;;;;;;7.68;2.88;;;;;;;17.42;48.72;94626.06;5070799;28;20039;-70
2023/10/22 03:17:25;;;;;;;9.07;3.30;;;;;;;17.30;48.57;94614.31;5053877;28;20467;-70
2023/10/22 03:19:51;;;;;;;7.88;2.78;;;;;;;17.49;48.17;94624.38;5071046;28;20384;-70
2023/10/22 03:22:17;;;;;;;7.97;2.80;;;;;;;17.46;49.08;94616.03;5070661;28;20041;-70
2023/10/22 03:24:42;;;;;;;7.65;2.72;;;;;;;17.45;49.01;94609.97;5072583;28;20039;-70
2023/10/22 03:27:07;;;;;;;11.23;3.30;;;;;;;17.41;49.31;94614.75;5070160;28;20025;-70
2023/10/22 03:29:33;;;;;;;7.68;3.00;;;;;;;17.41;48.93;94617.38;5071797;28;20029;-71
2023/10/22 03:31:58;;;;;;;8.50;3.05;;;;;;;17.51;49.31;94609.28;5067644;28;20040;-70
2023/10/22 03:34:24;;;;;;;8.68;2.75;;;;;;;17.38;49.87;94599.38;5068656;28;20190;-71
2023/10/22 03:36:50;;;;;;;10.18;3.28;;;;;;;17.30;49.52;94601.19;5070440;28;20519;-71
2023/10/22 03:39:17;;;;;;;9.80;2.42;;;;;;;17.26;48.47;94586.78;5053445;28;20056;-70
2023/10/22 03:41:43;;;;;;;13.55;3.40;;;;;;;17.41;49.84;94603.41;5070609;28;20021;-70
2023/10/22 03:44:08;;;;;;;8.82;2.85;;;;;;;17.33;50.49;94606.13;5070251;28;20059;-70
2023/10/22 03:46:33;;;;;;;7.75;2.25;;;;;;;17.34;48.84;94597.25;5071073;28;20024;-70
2023/10/22 03:48:59;;;;;;;10.30;2.80;;;;;;;17.19;50.03;94584.06;5070626;28;20033;-70
2023/10/22 03:51:24;;;;;;;16.20;3.00;;;;;;;17.25;49.28;94593.84;5071826;28;20021;-70
2023/10/22 03:53:53;;;;;;;9.27;2.58;;;;;;;17.24;50.42;94607.13;5071491;28;20059;-70
2023/10/22 03:56:19;;;;;;;8.82;2.60;;;;;;;17.10;49.23;94595.56;5070075;28;20501;-70
2023/10/22 03:58:45;;;;;;;7.85;2.50;;;;;;;17.16;48.50;94613.25;5053585;28;20536;-71
2023/10/22 04:01:10;;;;;;;8.80;2.33;;;;;;;17.17;48.46;94596.53;5070519;28;20044;-70
2023/10/22 04:03:36;;;;;;;9.73;2.20;;;;;;;17.23;47.92;94593.22;5070358;28;20029;-70
2023/10/22 04:06:01;;;;;;;9.38;2.70;;;;;;;17.14;48.46;94597.69;5070397;28;20025;-72
2023/10/22 04:08:27;;;;;;;5.43;2.30;;;;;;;17.22;49.80;94604.72;5053743;28;20040;-70
2023/10/22 04:10:52;;;;;;;9.15;2.30;;;;;;;17.26;48.31;94608.59;5053676;28;20036;-70
2023/10/22 04:13:18;;;;;;;7.47;2.20;;;;;;;17.17;47.88;94591.28;5070483;28;20517;-70
2023/10/22 04:15:45;;;;;;;9.73;2.67;;;;;;;17.26;48.05;94603.34;5066743;28;20529;-70
2023/10/22 04:18:11;;;;;;;10.82;3.03;;;;;;;17.31;47.96;94600.22;5053513;28;20433;-70
2023/10/22 04:20:36;;;;;;;12.07;2.35;;;;;;;17.20;49.02;94609.31;5071444;28;20111;-70
2023/10/22 04:23:01;;;;;;;8.55;2.20;;;;;;;17.18;49.49;94601.59;5053395;28;20032;-70
2023/10/22 04:25:30;;;;;;;5.93;2.40;;;;;;;17.16;50.13;94589.63;5070117;28;20025;-70
2023/10/22 04:27:55;;;;;;;10.80;2.33;;;;;;;17.18;49.81;94592.91;5051065;28;20036;-70
2023/10/22 04:30:20;;;;;;;11.27;2.20;;;;;;;17.08;49.23;94606.25;5070998;28;20032;-72
2023/10/22 04:32:46;;;;;;;5.10;2.60;;;;;;;17.17;49.62;94612.28;5069910;28;20060;-70
2023/10/22 04:35:11;;;;;;;8.32;2.40;;;;;;;16.94;50.10;94605.16;5070258;28;20036;-71
2023/10/22 04:37:37;;;;;;;6.78;2.58;;;;;;;17.20;50.60;94631.09;5037811;28;20099;-70
2023/10/22 04:40:03;;;;;;;8.35;2.22;;;;;;;17.05;51.72;94627.59;5070248;28;20032;-69
2023/10/22 04:42:29;;;;;;;11.05;2.60;;;;;;;16.96;50.58;94636.47;5052611;28;20525;-70
2023/10/22 04:44:54;;;;;;;10.02;2.45;;;;;;;16.84;51.01;94638.66;5070779;28;20032;-69
2023/10/22 04:47:20;;;;;;;6.90;2.60;;;;;;;16.59;51.56;94627.38;5070517;28;20501;-70
2023/10/22 04:49:47;;;;;;;5.70;2.58;;;;;;;16.62;52.55;94641.97;5052862;28;20024;-70
2023/10/22 04:52:22;;;;;;;9.52;2.50;;;;;;;16.74;52.92;94646.69;5052861;28;20505;-69
2023/10/22 04:54:48;;;;;;;11.95;2.80;;;;;;;16.52;52.47;94637.75;5068975;28;20498;-70
2023/10/22 04:57:13;;;;;;;4.20;2.45;;;;;;;16.38;52.96;94617.47;5029735;28;20028;-69
2023/10/22 04:59:39;;;;;;;9.70;3.50;;;;;;;16.42;52.14;94639.72;5062518;28;20477;-70
2023/10/22 05:02:04;;;;;;;9.98;3.10;;;;;;;16.46;53.24;94654.13;5068333;28;20576;-70
2023/10/22 05:04:30;;;;;;;7.97;2.42;;;;;;;16.27;53.70;94678.09;5051005;28;20041;-70
2023/10/22 05:06:57;;;;;;;8.55;2.33;;;;;;;16.14;53.26;94677.75;5067082;28;20020;-70
2023/10/22 05:09:22;;;;;;;12.00;3.00;;;;;;;15.98;54.10;94695.09;5070073;28;20074;-70
2023/10/22 05:11:48;;;;;;;8.88;3.90;;;;;;;15.86;53.90;94660.56;5065544;28;20016;-70
2023/10/22 05:14:13;;;;;;;8.98;2.88;;;;;;;16.46;53.92;94688.19;5067080;28;20395;-71
2023/10/22 05:16:39;;;;;;;8.23;2.67;;;;;;;16.22;53.36;94677.75;5064817;28;20470;-70
2023/10/22 05:19:04;;;;;;;10.57;2.75;;;;;;;16.43;54.14;94672.81;5065345;28;20045;-70
2023/10/22 05:21:30;;;;;;;10.65;2.78;;;;;;;16.41;54.83;94687.06;5069830;28;20028;-71
2023/10/22 05:23:55;;;;;;;9.35;3.20;;;;;;;16.43;54.54;94700.81;5066097;28;20037;-71
2023/10/22 05:26:22;;;;;;;9.50;2.90;;;;;;;16.67;54.24;94682.44;5068197;28;20486;-71
2023/10/22 05:28:47;;;;;;;7.60;2.72;;;;;;;16.72;55.35;94698.50;5050000;28;20519;-71
2023/10/22 05:31:14;;;;;;;10.25;3.28;;;;;;;16.54;54.86;94688.19;5067524;28;20035;-71
2023/10/22 05:33:40;;;;;;;7.40;2.35;;;;;;;16.41;53.18;94684.44;5064435;28;20040;-71
2023/10/22 05:36:12;;;;;;;9.60;2.70;;;;;;;16.49;51.73;94672.16;5069851;28;20061;-71
2023/10/22 05:38:37;;;;;;;5.45;2.80;;;;;;;16.54;53.03;94679.50;5066720;28;20487;-71
2023/10/22 05:41:03;;;;;;;7.15;2.58;;;;;;;16.41;53.97;94682.66;5067714;28;20047;-70
2023/10/22 05:43:28;;;;;;;7.43;2.90;;;;;;;16.38;54.02;94682.16;5068784;28;20040;-70
2023/10/22 05:45:57;;;;;;;10.57;2.70;;;;;;;16.47;54.02;94684.63;5068661;28;20036;-69
2023/10/22 05:48:22;;;;;;;10.30;2.83;;;;;;;16.46;53.98;94690.00;5065169;28;20032;-70
2023/10/22 05:50:47;;;;;;;8.35;2.78;;;;;;;16.28;54.61;94679.72;5068800;28;20028;-70
2023/10/22 05:53:13;;;;;;;8.60;2.72;;;;;;;16.33;55.10;94680.03;5068658;28;20036;-70
2023/10/22 05:55:38;;;;;;;7.60;2.28;;;;;;;16.52;53.59;94692.81;5045714;28;20033;-70
2023/10/22 05:58:06;;;;;;;9.05;2.58;;;;;;;16.65;54.18;94702.75;5067399;28;20490;-70
2023/10/22 06:00:31;;;;;;;9.20;3.03;;;;;;;16.49;54.12;94701.00;5070133;28;20078;-69
2023/10/22 06:02:57;;;;;;;12.43;2.63;;;;;;;16.52;54.30;94703.28;5070150;28;20037;-70
2023/10/22 06:05:23;;;;;;;9.65;2.35;;;;;;;16.49;50.41;94695.75;5069016;28;20548;-71
2023/10/22 06:07:49;;;;;;;11.57;2.60;;;;;;;16.62;50.14;94691.78;5055916;28;20082;-71
2023/10/22 06:10:14;;;;;;;10.13;2.40;;;;;;;16.54;51.05;94722.28;5052300;28;20033;-71
2023/10/22 06:12:39;;;;;;;11.18;2.50;;;;;;;16.40;51.01;94730.81;5055763;28;20058;-71
2023/10/22 06:15:05;;;;;;;6.72;2.63;;;;;;;16.41;52.72;94736.88;5073652;28;20418;-71
2023/10/22 06:17:31;;;;;;;8.15;3.30;;;;;;;16.48;53.53;94753.59;5072245;28;20029;-71
2023/10/22 06:19:57;;;;;;;9.90;3.03;;;;;;;16.52;53.33;94745.25;5055996;28;20090;-71
2023/10/22 06:22:22;;;;;;;8.93;2.80;;;;;;;16.68;53.50;94769.78;5055258;28;20027;-71
2023/10/22 06:24:48;;;;;;;7.95;3.00;;;;;;;16.58;54.20;94790.16;5067952;28;20064;-71
2023/10/22 06:27:13;;;;;;;9.30;3.03;;;;;;;16.54;53.54;94760.78;5071936;28;20067;-71
2023/10/22 06:29:38;;;;;;;12.35;3.67;;;;;;;16.51;54.24;94803.88;5071745;28;20078;-72
2023/10/22 06:32:04;;;;;;;9.68;3.10;;;;;;;16.81;52.23;94800.81;5065789;28;20054;-72
2023/10/22 06:34:30;;;;;;;8.90;2.78;;;;;;;16.59;52.68;94797.03;5070846;28;20090;-72
2023/10/22 06:36:55;;;;;;;12.05;2.72;;;;;;;16.59;52.44;94770.78;5053240;28;20056;-73
2023/10/22 06:39:21;;;;;;;7.75;2.47;;;;;;;16.54;53.02;94751.13;5071795;28;20024;-72
2023/10/22 06:41:46;;;;;;;10.90;2.80;;;;;;;16.39;53.69;94765.06;5071441;28;20059;-72
2023/10/22 06:44:12;;;;;;;11.73;2.83;;;;;;;16.48;53.71;94732.63;5052891;28;20461;-71
2023/10/22 06:46:37;;;;;;;13.23;3.50;;;;;;;16.63;52.53;94745.88;5071321;28;20453;-72
2023/10/22 06:49:03;;;;;;;16.95;5.57;;;;;;;16.62;52.43;94745.06;5055012;28;20036;-74
2023/10/22 06:51:29;;;;;;;8.48;3.05;;;;;;;16.88;51.56;94771.13;5054893;28;20498;-71
2023/10/22 06:53:54;;;;;;;8.00;2.83;;;;;;;16.94;51.78;94765.22;5066228;28;20040;-73
2023/10/22 06:56:19;;;;;;;12.30;3.53;;;;;;;16.95;51.90;94756.34;5068315;28;20410;-72
2023/10/22 06:58:45;;;;;;;12.77;3.05;;;;;;;16.87;52.11;94766.03;5072636;28;20021;-74
2023/10/22 07:01:12;;;;;;;12.82;3.28;;;;;;;17.03;51.68;94773.88;5047218;28;20033;-73
2023/10/22 07:03:39;;;;;;;9.40;2.70;;;;;;;17.25;51.18;94790.72;5054450;28;20041;-73
2023/10/22 07:06:05;;;;;;;7.70;2.65;;;;;;;17.43;50.78;94791.31;5058812;28;20508;-73
2023/10/22 07:08:30;;;;;;;13.65;3.75;;;;;;;17.45;51.28;94798.22;5063690;28;20059;-72
2023/10/22 07:10:56;;;;;;;11.60;3.60;;;;;;;17.46;52.03;94776.22;5052857;28;20020;-74
2023/10/22 07:13:23;;;;;;;8.13;2.80;;;;;;;17.79;50.00;94780.34;5071256;28;20115;-73
2023/10/22 07:15:48;;;;;;;9.25;3.05;;;;;;;17.80;50.37;94786.44;5072224;28;20041;-73
2023/10/22 07:18:13;;;;;;;9.82;3.15;;;;;;;17.64;51.55;94779.44;5072198;28;20045;-73
2023/10/22 07:20:39;;;;;;;7.22;2.88;;;;;;;17.61;51.75;94761.38;5054597;28;20020;-73
2023/10/22 07:23:06;;;;;;;10.70;3.30;;;;;;;18.09;50.56;94791.84;5071161;28;20033;-73
2023/10/22 07:25:31;;;;;;;12.20;4.15;;;;;;;18.24;50.96;94799.00;5071082;28;20487;-73
2023/10/22 07:27:57;;;;;;;9.50;3.20;;;;;;;18.50;50.62;94793.41;5068927;28;20028;-72
2023/10/22 07:30:22;;;;;;;11.23;3.42;;;;;;;18.38;48.17;94779.00;5070200;28;20029;-73
2023/10/22 07:32:52;;;;;;;9.52;2.92;;;;;;;18.51;48.36;94781.88;5070103;28;20097;-73
2023/10/22 07:35:18;;;;;;;7.30;2.88;;;;;;;18.51;48.53;94779.25;5070416;28;20028;-73
2023/10/22 07:37:44;;;;;;;10.30;3.35;;;;;;;18.44;48.94;94773.03;5068892;28;20027;-73
2023/10/22 07:40:13;;;;;;;6.68;3.03;;;;;;;18.59;48.77;94779.19;5048774;28;20482;-73
2023/10/22 07:42:43;;;;;;;10.15;3.72;;;;;;;18.57;49.64;94770.66;5046114;28;20025;-73
2023/10/22 07:45:08;;;;;;;7.40;3.58;;;;;;;18.72;49.71;94766.25;5037107;28;20028;-73
2023/10/22 07:47:35;;;;;;;8.57;3.20;;;;;;;18.89;49.17;94760.88;5070643;28;20031;-73
2023/10/22 07:50:01;;;;;;;11.15;3.13;;;;;;;18.77;50.33;94752.56;5070749;28;20024;-73
2023/10/22 07:52:26;;;;;;;7.93;3.00;;;;;;;18.84;48.55;94736.91;5070416;28;20029;-73
2023/10/22 07:54:52;;;;;;;11.30;3.35;;;;;;;19.12;49.40;94751.09;5053811;28;20039;-72
2023/10/22 07:57:20;;;;;;;9.25;3.28;;;;;;;18.94;48.98;94742.69;5070437;28;20043;-74
2023/10/22 07:59:46;;;;;;;16.25;3.50;;;;;;;19.17;48.16;94758.44;5070750;28;20032;-73
2023/10/22 08:02:11;;;;;;;10.48;3.30;;;;;;;19.31;48.18;94765.53;5070485;28;20078;-73
2023/10/22 08:04:37;;;;;;;9.65;3.13;;;;;;;19.40;46.76;94739.91;5072109;28;20029;-73
2023/10/22 08:07:04;;;;;;;7.95;3.20;;;;;;;19.56;46.52;94752.88;5070336;28;20025;-73
2023/10/22 08:09:29;;;;;;;11.85;3.47;;;;;;;19.59;46.86;94741.16;5070549;28;20036;-73
2023/10/22 08:11:55;;;;;;;9.88;3.13;;;;;;;20.15;45.07;94751.97;5053617;28;20032;-73
2023/10/22 08:14:20;;;;;;;12.75;4.75;;;;;;;20.10;45.76;94741.16;5070021;28;20411;-73
2023/10/22 08:16:46;;;;;;;11.35;3.88;;;;;;;20.21;44.64;94739.84;5070171;28;20074;-73
2023/10/22 08:19:11;;;;;;;13.27;4.20;;;;;;;20.28;45.80;94732.78;5071474;28;20098;-73
2023/10/22 08:21:37;;;;;;;8.77;4.43;;;;;;;20.85;43.40;94716.06;5053464;28;20024;-73
2023/10/22 08:24:04;;;;;;;11.98;4.38;;;;;;;21.04;43.38;94727.75;5071600;28;20109;-73
2023/10/22 08:26:29;;;;;;;12.77;3.92;;;;;;;21.24;42.07;94719.94;5070951;28;20016;-73
2023/10/22 08:28:55;;;;;;;9.88;3.63;;;;;;;21.24;41.33;94708.56;5048474;28;20504;-73
2023/10/22 08:31:20;;;;;;;10.00;3.30;;;;;;;21.10;41.84;94721.69;5066921;28;20017;-75
2023/10/22 08:33:45;;;;;;;9.82;3.65;;;;;;;20.93;41.95;94707.16;5069180;28;20059;-73
2023/10/22 08:36:11;;;;;;;12.82;3.45;;;;;;;20.86;42.41;94715.03;5069947;28;20509;-78
2023/10/22 08:38:37;;;;;;;11.48;4.20;;;;;;;21.04;41.71;94732.22;5052919;28;20048;-72
2023/10/22 08:41:03;;;;;;;13.57;7.57;;;;;;;21.25;41.66;94732.13;5068683;28;20028;-74
2023/10/22 08:43:34;;;;;;;14.75;4.75;;;;;;;21.28;41.45;94710.59;5069178;28;20474;-73
2023/10/22 08:46:00;;;;;;;14.50;4.60;;;;;;;21.24;41.31;94704.09;5036473;28;20422;-73
2023/10/22 08:48:26;;;;;;;12.75;5.82;;;;;;;21.31;41.38;94704.97;5035818;28;20041;-74
2023/10/22 08:50:52;;;;;;;14.20;6.43;;;;;;;21.31;41.16;94704.97;5069287;28;20115;-75
2023/10/22 08:53:17;;;;;;;13.40;3.72;;;;;;;21.20;41.15;94694.91;5068472;28;20569;-74
2023/10/22 08:55:47;;;;;;;11.93;4.95;;;;;;;21.57;40.40;94704.28;5052433;28;20418;-74
2023/10/22 08:58:17;;;;;;;21.00;6.38;;;;;;;21.64;40.34;94685.78;5035642;28;20387;-73
2023/10/22 09:00:46;;;;;;;18.55;8.60;;;;;;;21.60;40.88;94693.31;5052298;28;20383;-73
2023/10/22 09:03:19;;;;;;;20.88;7.15;;;;;;;21.68;40.69;94702.09;5063884;28;20021;-73
2023/10/22 09:05:45;;;;;;;13.27;3.78;;;;;;;21.49;40.75;94671.94;5066137;28;20475;-73
2023/10/22 09:08:10;;;;;;;9.70;3.00;;;;;;;21.67;39.48;94698.59;5069039;28;20040;-73
2023/10/22 09:10:36;;;;;;;9.07;2.90;;;;;;;21.91;39.63;94699.09;5068833;28;20028;-72
2023/10/22 09:13:25;;;;;;;13.10;3.05;;;;;;;22.10;39.27;94687.75;5068864;28;20059;-73
2023/10/22 09:15:51;;;;;;;6.22;2.70;;;;;;;22.14;38.51;94691.59;5070130;28;20070;-73
2023/10/22 09:18:17;;;;;;;8.65;2.60;;;;;;;22.40;38.14;94692.69;5070390;28;20075;-73
2023/10/22 09:20:44;;;;;;;9.80;2.38;;;;;;;22.50;37.02;94687.81;5068806;28;20060;-73
2023/10/22 09:23:22;;;;;;;8.95;2.28;;;;;;;22.65;37.43;94690.22;5052586;28;20029;-74
2023/10/22 09:25:57;;;;;;;7.90;2.80;;;;;;;22.73;37.62;94674.97;5068609;28;20028;-73
2023/10/22 09:28:29;;;;;;;11.32;2.58;;;;;;;22.83;37.30;94676.38;5068674;28;20056;-73
2023/10/22 09:31:01;;;;;;;13.07;2.55;;;;;;;23.04;36.91;94668.25;5052261;28;20036;-73
2023/10/22 09:33:31;;;;;;;14.95;2.70;;;;;;;23.09;36.69;94668.41;5052993;28;20490;-74
2023/10/22 09:36:06;;;;;;;13.95;2.95;;;;;;;23.34;35.61;94676.47;5069358;28;20033;-73
2023/10/22 09:38:45;;;;;;;11.68;2.63;;;;;;;23.32;35.98;94648.59;5070608;28;20041;-73
2023/10/22 09:41:12;;;;;;;10.77;2.75;;;;;;;23.60;35.47;94666.81;5070183;28;20428;-73
2023/10/22 09:43:37;;;;;;;14.40;3.10;;;;;;;23.45;35.91;94656.47;5073189;28;20028;-73
2023/10/22 09:46:06;;;;;;;12.07;2.70;;;;;;;23.70;35.63;94661.06;5073149;28;20029;-73
2023/10/22 09:48:32;;;;;;;8.50;2.78;;;;;;;23.90;34.59;94629.16;5073072;28;20067;-73
2023/10/22 09:50:57;;;;;;;19.52;3.13;;;;;;;24.23;33.32;94650.13;5056211;28;20418;-73
2023/10/22 09:53:24;;;;;;;11.90;3.05;;;;;;;24.24;33.43;94646.47;5056156;28;20040;-73
2023/10/22 09:55:49;;;;;;;16.67;3.70;;;;;;;24.22;32.85;94622.00;5072834;28;20032;-73
2023/10/22 09:58:16;;;;;;;16.02;3.45;;;;;;;24.42;33.20;94627.94;5055568;28;20036;-75
2023/10/22 10:00:42;;;;;;;13.38;3.47;;;;;;;24.49;33.09;94626.09;5028532;28;20116;-73
2023/10/22 10:03:08;;;;;;;15.18;3.30;;;;;;;24.45;33.77;94606.31;5066760;28;20410;-73
2023/10/22 10:05:33;;;;;;;19.17;3.40;;;;;;;24.43;33.39;94616.34;5056074;28;20024;-73
2023/10/22 10:07:58;;;;;;;23.30;3.85;;;;;;;24.52;32.94;94620.34;5055924;28;20033;-73
2023/10/22 10:10:24;;;;;;;15.25;3.35;;;;;;;24.54;33.29;94617.44;5039419;28;20242;-73
2023/10/22 10:12:49;;;;;;;19.08;3.53;;;;;;;24.24;33.35;94599.53;5072566;28;20029;-73
2023/10/22 10:15:41;;;;;;;15.02;3.15;;;;;;;24.44;33.13;94615.31;5039224;28;20025;-74
2023/10/22 10:18:07;;;;;;;20.95;3.20;;;;;;;24.61;32.35;94598.81;5053434;28;20040;-73
2023/10/22 10:20:35;;;;;;;17.85;3.67;;;;;;;24.71;32.13;94607.91;5072280;28;20402;-74
2023/10/22 10:23:04;;;;;;;16.33;3.60;;;;;;;24.86;32.68;94599.56;5071780;28;20030;-72
2023/10/22 10:25:31;;;;;;;14.38;3.22;;;;;;;24.75;32.48;94577.22;5072443;28;20028;-72
2023/10/22 10:28:09;;;;;;;17.70;3.83;;;;;;;25.05;32.16;94599.59;5071746;28;20094;-72
2023/10/22 10:30:34;;;;;;;20.50;3.45;;;;;;;24.88;31.84;94594.88;5072383;28;20032;-72
2023/10/22 10:33:00;;;;;;;26.55;4.35;;;;;;;24.87;32.34;94598.53;5071474;28;20486;-71
2023/10/22 10:35:27;;;;;;;18.27;3.95;;;;;;;25.29;32.07;94625.28;5054161;28;20021;-72
2023/10/22 10:38:14;;;;;;;25.02;4.70;;;;;;;25.24;30.77;94611.03;5055529;28;20044;-73
2023/10/22 10:40:47;;;;;;;17.42;3.67;;;;;;;24.88;31.83;94586.09;5073317;28;20028;-72
2023/10/22 10:43:13;;;;;;;15.25;3.95;;;;;;;24.92;32.08;94593.38;5072056;28;20037;-72
2023/10/22 10:45:43;;;;;;;15.82;3.25;;;;;;;24.95;31.84;94595.59;5072067;28;20074;-72
2023/10/22 10:48:45;;;;;;;22.02;3.45;;;;;;;24.75;32.23;94585.19;5040060;28;20035;-72
2023/10/22 10:51:20;;;;;;;24.27;3.13;;;;;;;24.90;32.02;94563.56;5052552;28;20037;-72
2023/10/22 10:54:00;;;;;;;15.73;3.17;;;;;;;25.00;32.35;94592.28;5071680;28;20086;-72
2023/10/22 10:56:46;;;;;;;16.92;3.08;;;;;;;24.98;32.08;94589.81;5073061;28;20514;-72
2023/10/22 10:59:36;;;;;;;21.27;3.72;;;;;;;24.90;32.34;94579.50;5071979;28;20635;-72
2023/10/22 11:02:03;;;;;;;20.73;3.70;;;;;;;24.84;32.95;94577.72;5071177;28;20032;-72
2023/10/22 11:04:29;;;;;;;21.20;3.28;;;;;;;24.99;32.62;94582.69;5054870;28;20048;-72
2023/10/22 11:06:56;;;;;;;15.93;3.50;;;;;;;25.11;32.52;94582.75;5071568;28;20016;-72
2023/10/22 11:09:21;;;;;;;16.38;3.35;;;;;;;25.11;32.27;94580.09;5071687;28;20106;-72
2023/10/22 11:12:01;;;;;;;19.25;3.20;;;;;;;25.27;32.05;94602.59;5054889;28;20474;-72
2023/10/22 11:14:26;;;;;;;16.38;3.60;;;;;;;25.25;31.99;94594.88;5071470;28;20036;-72
2023/10/22 11:16:57;;;;;;;19.23;3.63;;;;;;;25.32;32.19;94590.28;5072591;28;20430;-72
2023/10/22 11:19:29;;;;;;;14.45;3.33;;;;;;;25.44;32.15;94592.22;5055070;28;20052;-72
2023/10/22 11:21:55;;;;;;;16.02;3.08;;;;;;;25.35;32.03;94584.53;5071363;28;20506;-73
2023/10/22 11:24:25;;;;;;;14.05;3.28;;;;;;;25.38;32.28;94594.72;5038081;28;20037;-72
2023/10/22 11:26:51;;;;;;;20.15;3.25;;;;;;;25.41;32.19;94583.63;5071231;28;20460;-73